Time;durP1;ratioP1;P1;durP2;ratioP2;P2;SDS_P1;SDS_P2;PMS_P1;PMS_P2;Temp;Humidity;BMP_temperature;BMP_pressure;BME280_temperature;BME280_humidity;BME280_pressure;Samples;Min_cycle;Max_cycle;Signal;HPM_P1;HPM_P2
2021/05/26 00:02:19;;;;;;;7.65;6.13;;;;;;;11.57;71.29;99461.25;4989185;28;20052;-78
2021/05/26 00:04:46;;;;;;;7.80;5.80;;;;;;;11.65;70.77;99468.13;5002395;28;20049;-80
2021/05/26 00:07:13;;;;;;;8.10;6.85;;;;;;;11.75;70.32;99463.59;5007412;28;20076;-78
2021/05/26 00:09:40;;;;;;;7.90;6.95;;;;;;;11.85;70.20;99469.56;5007778;28;20128;-77
2021/05/26 00:12:07;;;;;;;13.15;8.30;;;;;;;12.05;70.04;99467.47;5004391;28;20052;-77
2021/05/26 00:14:35;;;;;;;13.90;9.40;;;;;;;12.16;69.33;99466.41;4975393;28;20414;-77
2021/05/26 00:17:06;;;;;;;15.90;8.55;;;;;;;12.21;68.90;99474.19;4978826;28;20065;-76
2021/05/26 00:19:34;;;;;;;12.27;8.43;;;;;;;12.39;68.93;99468.63;4998140;28;20415;-77
2021/05/26 00:22:01;;;;;;;11.25;7.47;;;;;;;12.38;69.21;99472.13;5000369;28;20054;-77
2021/05/26 00:24:29;;;;;;;10.18;7.18;;;;;;;12.31;68.96;99473.16;5008540;28;20492;-76
2021/05/26 00:26:58;;;;;;;14.18;7.25;;;;;;;12.33;68.49;99468.72;5008482;28;20051;-77
2021/05/26 00:29:25;;;;;;;17.23;8.88;;;;;;;12.24;68.64;99471.50;5006305;28;20050;-77
2021/05/26 00:31:56;;;;;;;17.00;8.50;;;;;;;12.60;67.95;99477.84;4995919;28;20127;-77
2021/05/26 00:34:23;;;;;;;11.80;8.15;;;;;;;12.40;68.38;99479.97;5008047;28;20053;-79
2021/05/26 00:36:50;;;;;;;16.00;8.65;;;;;;;12.47;67.84;99474.56;5010323;28;20167;-77
2021/05/26 00:39:18;;;;;;;14.35;7.90;;;;;;;12.63;67.51;99483.00;4990333;28;20050;-78
2021/05/26 00:41:45;;;;;;;14.32;8.40;;;;;;;12.34;67.98;99472.22;5003126;28;20564;-76
2021/05/26 00:44:16;;;;;;;15.15;8.63;;;;;;;12.41;68.21;99477.31;5021935;28;20042;-77
2021/05/26 00:46:45;;;;;;;12.90;8.48;;;;;;;12.33;68.56;99481.81;4992789;28;20644;-77
2021/05/26 00:49:13;;;;;;;17.95;9.13;;;;;;;12.41;68.23;99479.94;4983503;28;20151;-77
2021/05/26 00:51:40;;;;;;;13.82;8.48;;;;;;;12.74;66.82;99485.44;4998852;28;20057;-77
2021/05/26 00:54:11;;;;;;;17.55;8.73;;;;;;;12.77;66.56;99483.63;4990169;28;20046;-77
2021/05/26 00:56:39;;;;;;;13.27;8.90;;;;;;;12.39;66.98;99489.56;4987210;28;20065;-77
2021/05/26 00:59:10;;;;;;;13.55;9.20;;;;;;;12.65;67.37;99484.72;4989008;28;20060;-76
2021/05/26 01:01:37;;;;;;;13.77;9.82;;;;;;;12.53;67.70;99491.94;5007464;28;20251;-77
2021/05/26 01:04:04;;;;;;;18.15;10.13;;;;;;;12.46;67.95;99490.34;5011768;28;20058;-76
2021/05/26 01:06:33;;;;;;;18.35;9.27;;;;;;;12.11;69.06;99483.97;4987684;28;20052;-76
2021/05/26 01:09:00;;;;;;;14.50;10.50;;;;;;;12.00;68.99;99477.16;5012788;28;20484;-78
2021/05/26 01:11:27;;;;;;;19.92;10.82;;;;;;;11.58;70.17;99486.53;4970300;28;20049;-77
2021/05/26 01:13:55;;;;;;;19.05;10.68;;;;;;;12.12;68.40;99480.47;5011524;28;20042;-77
2021/05/26 01:16:22;;;;;;;24.38;9.93;;;;;;;11.76;68.81;99489.75;4999253;28;20045;-77
2021/05/26 01:18:55;;;;;;;;;;;;;;;11.46;69.72;99489.34;5011492;28;20049;-75
2021/05/26 01:21:22;;;;;;;21.70;9.50;;;;;;;11.78;69.01;99487.13;4991667;28;20437;-77
2021/05/26 01:23:50;;;;;;;15.68;9.55;;;;;;;12.17;67.52;99483.00;5002307;28;20111;-77
2021/05/26 01:26:17;;;;;;;18.23;9.60;;;;;;;11.99;67.76;99483.31;5001814;28;20060;-78
2021/05/26 01:28:45;;;;;;;14.65;8.85;;;;;;;11.73;68.02;99489.81;4988243;28;20136;-77
2021/05/26 01:31:12;;;;;;;15.40;7.32;;;;;;;11.78;66.82;99490.63;5005538;28;20045;-77
2021/05/26 01:33:42;;;;;;;18.20;8.48;;;;;;;12.00;65.37;99480.66;4984141;28;20041;-77
2021/05/26 01:36:10;;;;;;;14.95;8.10;;;;;;;11.63;66.75;99484.72;4984260;28;20121;-77
2021/05/26 01:38:41;;;;;;;20.10;8.67;;;;;;;11.67;66.72;99484.63;5006008;28;20177;-76
2021/05/26 01:41:09;;;;;;;13.73;7.60;;;;;;;12.13;65.36;99491.81;4993326;28;20053;-77
2021/05/26 01:43:36;;;;;;;11.30;6.57;;;;;;;11.82;65.65;99493.16;4993705;28;20111;-77
2021/05/26 01:46:03;;;;;;;18.95;7.35;;;;;;;11.03;68.11;99487.25;4996842;28;20129;-77
2021/05/26 01:48:32;;;;;;;13.48;6.50;;;;;;;11.45;66.63;99492.81;4989584;28;20626;-77
2021/05/26 01:50:59;;;;;;;14.10;7.65;;;;;;;11.41;66.89;99483.31;5015347;28;20046;-77
2021/05/26 01:53:32;;;;;;;15.35;8.13;;;;;;;11.56;66.64;99486.53;5015392;28;20041;-77
2021/05/26 01:55:59;;;;;;;18.67;7.95;;;;;;;11.50;67.13;99480.56;5010621;28;20136;-77
2021/05/26 01:58:26;;;;;;;15.48;8.15;;;;;;;11.29;67.09;99484.31;4993277;28;20049;-77
2021/05/26 02:00:54;;;;;;;15.15;7.70;;;;;;;11.33;67.58;99492.09;5019350;28;20060;-79
2021/05/26 02:03:21;;;;;;;18.42;7.63;;;;;;;11.57;66.83;99490.03;5021495;28;20484;-77
2021/05/26 02:05:50;;;;;;;19.02;7.40;;;;;;;11.63;67.15;99488.19;5007169;28;20046;-77
2021/05/26 02:08:18;;;;;;;17.85;7.53;;;;;;;11.73;66.72;99481.97;5010180;28;20116;-76
2021/05/26 02:13:32;;;;;;;17.85;7.53;;;;;;;11.72;66.61;99488.09;4970172;28;20072;-76
2021/05/26 02:16:02;;;;;;;13.45;6.85;;;;;;;11.84;65.37;99484.41;5007446;28;20048;-76
2021/05/26 02:18:29;;;;;;;19.33;7.30;;;;;;;11.98;65.02;99479.81;5003070;28;20105;-76
2021/05/26 02:20:57;;;;;;;14.02;7.15;;;;;;;11.58;66.68;99481.28;5019780;28;20051;-76
2021/05/26 02:23:24;;;;;;;12.82;6.78;;;;;;;11.93;65.08;99481.66;5007043;28;20717;-77
2021/05/26 02:25:52;;;;;;;18.27;6.75;;;;;;;11.91;65.13;99483.41;5018802;28;20107;-75
2021/05/26 02:28:20;;;;;;;17.70;6.93;;;;;;;11.67;65.93;99489.00;4997263;28;21453;-76
2021/05/26 02:30:47;;;;;;;13.35;7.60;;;;;;;11.82;65.50;99490.56;4995900;28;20393;-76
2021/05/26 02:33:14;;;;;;;17.17;6.75;;;;;;;11.19;67.08;99491.44;4983121;28;20050;-76
2021/05/26 02:35:42;;;;;;;20.95;6.43;;;;;;;11.30;66.23;99484.31;5023412;28;20065;-77
2021/05/26 02:38:09;;;;;;;14.68;6.38;;;;;;;11.67;65.09;99487.25;4994611;28;20088;-77
2021/05/26 02:40:40;;;;;;;10.95;6.40;;;;;;;11.66;65.22;99482.91;5018986;28;20046;-77
2021/05/26 02:43:07;;;;;;;14.32;6.70;;;;;;;11.49;65.52;99481.44;4988021;28;20049;-77
2021/05/26 02:45:34;;;;;;;13.23;6.55;;;;;;;11.34;66.10;99477.28;5020319;28;20080;-78
2021/05/26 02:48:02;;;;;;;18.23;8.10;;;;;;;11.26;66.25;99481.75;5003057;28;20049;-77
2021/05/26 02:50:29;;;;;;;33.30;13.73;;;;;;;11.76;64.34;99488.88;4990370;28;20049;-77
2021/05/26 02:52:56;;;;;;;42.28;16.85;;;;;;;11.55;64.36;99481.34;5027321;28;20079;-76
2021/05/26 02:55:24;;;;;;;46.58;16.60;;;;;;;11.33;64.81;99478.16;5009457;28;20057;-79
2021/05/26 02:57:52;;;;;;;29.05;12.52;;;;;;;11.36;64.49;99483.38;5002236;28;20099;-76
2021/05/26 03:00:21;;;;;;;45.97;15.18;;;;;;;11.29;64.54;99477.34;5022900;28;20345;-76
2021/05/26 03:02:48;;;;;;;35.03;13.60;;;;;;;11.03;65.43;99489.88;5023636;28;20072;-77
2021/05/26 03:05:18;;;;;;;33.25;13.32;;;;;;;11.15;64.77;99486.25;5019475;28;20057;-76
2021/05/26 03:07:45;;;;;;;31.55;12.93;;;;;;;11.04;64.59;99490.75;5021620;28;20096;-77
2021/05/26 03:10:14;;;;;;;23.85;10.68;;;;;;;11.16;64.26;99480.16;4998167;28;20038;-76
2021/05/26 03:12:42;;;;;;;33.65;12.93;;;;;;;10.95;64.43;99486.50;4993126;28;20054;-76
2021/05/26 03:15:14;;;;;;;46.20;17.23;;;;;;;10.73;64.74;99479.81;5009811;28;20056;-76
2021/05/26 03:17:43;;;;;;;48.30;17.10;;;;;;;10.69;64.11;99475.50;5007755;28;20060;-76
2021/05/26 03:20:13;;;;;;;40.33;16.00;;;;;;;10.98;63.55;99476.03;4991150;28;20129;-76
2021/05/26 03:22:42;;;;;;;44.90;15.23;;;;;;;10.30;64.74;99468.97;5014996;28;20388;-75
2021/05/26 03:25:11;;;;;;;32.25;14.45;;;;;;;10.63;63.92;99463.38;5003619;28;20041;-76
2021/05/26 03:27:39;;;;;;;29.65;12.35;;;;;;;10.49;63.60;99460.06;5002228;28;20045;-76
2021/05/26 03:30:12;;;;;;;19.20;8.00;;;;;;;10.16;64.70;99461.28;5007843;28;20045;-75
2021/05/26 03:32:40;;;;;;;14.30;5.43;;;;;;;9.85;65.77;99455.41;5008965;28;20559;-75
2021/05/26 03:35:09;;;;;;;11.32;5.35;;;;;;;10.12;63.95;99458.66;5008744;28;20054;-75
2021/05/26 03:37:36;;;;;;;13.57;4.95;;;;;;;9.89;64.25;99453.63;5021314;28;20058;-77
2021/05/26 03:40:06;;;;;;;10.23;5.10;;;;;;;9.36;66.02;99451.41;5015282;28;20103;-76
2021/05/26 03:42:32;;;;;;;9.30;5.68;;;;;;;9.59;65.84;99445.16;5014559;28;20137;-75
2021/05/26 03:45:00;;;;;;;14.05;6.10;;;;;;;9.22;67.06;99443.69;5025392;28;20096;-78
2021/05/26 03:47:27;;;;;;;11.43;6.65;;;;;;;9.51;67.03;99452.19;5007885;28;20045;-77
2021/05/26 03:49:54;;;;;;;12.65;6.65;;;;;;;9.56;66.84;99446.94;5007354;28;20128;-76
2021/05/26 03:52:21;;;;;;;15.00;6.88;;;;;;;9.34;67.25;99441.03;5007791;28;20049;-76
2021/05/26 03:54:48;;;;;;;14.77;6.30;;;;;;;9.58;66.61;99446.06;5021757;28;20060;-77
2021/05/26 03:57:15;;;;;;;12.80;5.35;;;;;;;9.24;66.93;99447.16;5001991;28;20053;-76
2021/05/26 03:59:42;;;;;;;9.18;5.32;;;;;;;9.37;66.97;99446.22;4995987;28;20105;-76
2021/05/26 04:02:09;;;;;;;11.73;5.40;;;;;;;9.40;66.33;99448.78;4986448;28;20034;-77
2021/05/26 04:04:39;;;;;;;15.40;5.68;;;;;;;9.43;66.84;99442.69;5010494;28;20042;-76
2021/05/26 04:07:06;;;;;;;9.35;4.88;;;;;;;9.24;67.03;99441.97;5019859;28;20132;-77
2021/05/26 04:09:33;;;;;;;13.80;5.18;;;;;;;9.54;66.14;99448.72;5006869;28;20068;-76
2021/05/26 04:12:01;;;;;;;13.82;4.60;;;;;;;9.17;66.55;99446.31;4997475;28;20148;-77
2021/05/26 04:14:28;;;;;;;12.52;5.03;;;;;;;9.10;66.72;99442.03;5024602;28;20053;-74
2021/05/26 04:16:55;;;;;;;22.08;5.10;;;;;;;9.29;65.92;99434.97;5018889;28;20449;-75
2021/05/26 04:19:22;;;;;;;8.88;4.57;;;;;;;9.72;64.78;99437.25;5003536;28;20123;-77
2021/05/26 04:21:49;;;;;;;11.15;4.18;;;;;;;9.30;65.10;99449.75;5020238;28;20045;-75
2021/05/26 04:24:16;;;;;;;9.50;4.65;;;;;;;9.51;64.82;99444.38;5006131;28;20054;-75
2021/05/26 04:26:43;;;;;;;10.25;4.55;;;;;;;9.68;64.51;99443.38;5000598;28;20638;-75
2021/05/26 04:29:10;;;;;;;9.15;4.40;;;;;;;9.63;64.94;99444.28;5015227;28;20042;-75
2021/05/26 04:31:37;;;;;;;8.35;3.88;;;;;;;9.53;64.72;99439.16;5008201;28;20120;-76
2021/05/26 04:34:04;;;;;;;8.55;3.85;;;;;;;9.29;65.54;99439.31;4995438;28;20141;-75
2021/05/26 04:36:31;;;;;;;10.07;4.05;;;;;;;9.64;64.29;99440.78;5002663;28;20136;-75
2021/05/26 04:38:58;;;;;;;9.85;3.97;;;;;;;9.58;64.62;99443.47;5006650;28;20581;-75
2021/05/26 04:41:25;;;;;;;6.30;3.78;;;;;;;9.69;64.75;99451.19;4999808;28;20046;-75
2021/05/26 04:43:52;;;;;;;5.55;3.08;;;;;;;9.92;63.86;99444.06;5008853;28;20108;-74
2021/05/26 04:46:19;;;;;;;9.65;4.07;;;;;;;9.97;64.00;99439.66;5016370;28;20041;-77
2021/05/26 04:51:04;;;;;;;9.02;3.33;;;;;;;9.64;64.74;99430.34;5088838;27;20377;-76
2021/05/26 04:53:31;;;;;;;11.98;3.40;;;;;;;10.34;63.27;99437.59;5047713;28;20452;-76
2021/05/26 04:55:58;;;;;;;5.28;3.05;;;;;;;9.92;64.30;99436.22;5043281;28;20056;-76
2021/05/26 04:58:25;;;;;;;8.38;3.30;;;;;;;10.24;63.03;99427.25;5009340;28;20065;-77
2021/05/26 05:00:52;;;;;;;11.20;3.30;;;;;;;10.49;62.49;99437.41;5030745;28;20056;-75
2021/05/26 05:03:19;;;;;;;10.10;3.38;;;;;;;10.43;62.69;99445.31;5044680;28;20411;-75
2021/05/26 05:05:46;;;;;;;8.18;3.10;;;;;;;10.71;61.65;99431.94;5043682;28;20060;-75
2021/05/26 05:08:13;;;;;;;7.40;3.03;;;;;;;10.70;61.46;99438.91;5053041;28;20152;-76
2021/05/26 05:10:41;;;;;;;8.10;2.92;;;;;;;10.64;62.25;99431.16;5052109;28;20048;-76
2021/05/26 05:13:09;;;;;;;7.05;2.50;;;;;;;10.43;62.67;99436.59;5055668;28;20068;-76
2021/05/26 05:15:37;;;;;;;4.65;2.60;;;;;;;10.87;61.48;99441.31;5044565;28;20088;-76
2021/05/26 05:18:05;;;;;;;5.95;2.97;;;;;;;10.69;62.21;99445.03;5040327;28;20048;-76
2021/05/26 05:20:33;;;;;;;5.35;2.50;;;;;;;10.82;61.47;99438.75;5042127;28;20384;-76
2021/05/26 05:23:00;;;;;;;7.75;2.80;;;;;;;10.71;62.12;99443.25;5028971;28;20047;-76
2021/05/26 05:25:27;;;;;;;6.03;2.65;;;;;;;10.74;61.84;99437.13;5057891;28;20053;-78
2021/05/26 05:27:54;;;;;;;9.35;3.17;;;;;;;11.16;60.60;99443.53;5052727;28;20150;-78
2021/05/26 05:30:22;;;;;;;3.83;2.97;;;;;;;10.64;61.91;99444.22;5040361;28;20076;-78
2021/05/26 05:32:50;;;;;;;8.02;2.70;;;;;;;10.65;62.60;99445.06;5043095;28;20476;-75
2021/05/26 05:35:17;;;;;;;8.80;2.85;;;;;;;11.03;61.75;99440.22;5021971;28;20059;-76
2021/05/26 05:37:44;;;;;;;9.38;2.70;;;;;;;11.04;62.01;99449.78;5039215;28;20044;-76
2021/05/26 05:40:15;;;;;;;4.95;2.53;;;;;;;11.13;61.85;99444.44;5024873;28;20380;-76
2021/05/26 05:42:43;;;;;;;6.53;2.15;;;;;;;11.33;61.72;99446.78;5042605;28;20091;-75
2021/05/26 05:45:11;;;;;;;4.50;2.60;;;;;;;11.52;60.61;99450.84;5041458;28;20439;-75
2021/05/26 05:47:38;;;;;;;6.07;2.03;;;;;;;11.62;59.04;99454.19;5043422;28;20529;-75
2021/05/26 05:50:06;;;;;;;4.28;1.90;;;;;;;11.62;59.07;99459.41;5011191;28;20056;-76
2021/05/26 05:52:32;;;;;;;4.38;1.92;;;;;;;11.44;60.38;99454.47;5042203;28;20124;-76
2021/05/26 05:55:00;;;;;;;3.42;2.10;;;;;;;11.13;61.02;99447.06;5039614;28;20056;-78
2021/05/26 05:57:28;;;;;;;3.05;2.08;;;;;;;11.05;61.72;99448.91;5043633;28;20057;-76
2021/05/26 05:59:55;;;;;;;5.70;2.20;;;;;;;10.93;62.42;99449.94;5027922;28;20553;-75
2021/05/26 06:02:23;;;;;;;11.13;1.90;;;;;;;11.53;60.74;99456.94;5042282;28;20053;-76
2021/05/26 06:04:50;;;;;;;4.13;2.05;;;;;;;11.25;61.41;99453.88;5045676;28;20057;-76
2021/05/26 06:07:17;;;;;;;6.15;2.22;;;;;;;11.55;60.13;99453.44;5043683;28;20048;-76
2021/05/26 06:09:45;;;;;;;3.90;1.73;;;;;;;11.32;61.16;99458.97;5027958;28;20053;-76
2021/05/26 06:13:35;;;;;;;3.80;2.13;;;;;;;12.17;59.15;99460.28;5042460;27;20377;-75
2021/05/26 06:18:40;;;;;;;4.25;1.80;;;;;;;12.46;58.59;99461.53;5083078;27;20753;-76
2021/05/26 06:21:08;;;;;;;3.30;1.60;;;;;;;12.79;57.54;99467.88;5042700;28;20048;-78
2021/05/26 06:23:35;;;;;;;4.07;1.60;;;;;;;12.77;56.96;99467.00;5049604;28;20399;-78
2021/05/26 06:26:03;;;;;;;5.43;1.77;;;;;;;12.60;57.71;99468.22;5039434;28;20052;-78
2021/05/26 06:28:30;;;;;;;5.53;1.55;;;;;;;12.74;57.14;99461.84;5034155;28;20095;-78
2021/05/26 06:31:47;;;;;;;4.13;1.67;;;;;;;13.08;56.24;99458.50;5062483;28;20036;-78
2021/05/26 06:34:14;;;;;;;3.60;1.73;;;;;;;13.07;57.00;99453.28;5058670;28;20407;-79
2021/05/26 06:36:40;;;;;;;3.67;1.25;;;;;;;12.82;57.27;99460.78;5081705;28;20044;-78
2021/05/26 06:39:10;;;;;;;2.00;1.40;;;;;;;14.27;54.37;99464.44;5048890;28;20037;-78
2021/05/26 06:41:37;;;;;;;4.60;1.63;;;;;;;14.76;51.48;99456.13;5062659;28;20120;-79
2021/05/26 06:44:04;;;;;;;5.15;1.50;;;;;;;14.56;52.77;99462.84;5066113;28;20102;-79
2021/05/26 06:46:33;;;;;;;3.92;1.40;;;;;;;15.03;51.63;99458.88;5076094;28;20129;-79
2021/05/26 06:49:04;;;;;;;3.13;1.67;;;;;;;14.64;52.57;99458.22;5070612;28;20524;-78
2021/05/26 06:53:08;;;;;;;5.65;1.65;;;;;;;13.75;55.21;99456.16;5051322;27;20480;-78
2021/05/26 06:55:36;;;;;;;6.40;1.60;;;;;;;13.54;56.04;99458.38;5059777;28;20041;-79
2021/05/26 06:58:03;;;;;;;6.85;1.70;;;;;;;13.88;54.62;99466.31;5036885;28;20051;-79
2021/05/26 07:00:34;;;;;;;4.13;1.50;;;;;;;13.68;55.48;99459.81;5060512;28;20051;-78
2021/05/26 07:03:03;;;;;;;2.65;1.20;;;;;;;14.09;54.15;99467.56;5056739;28;20059;-78
2021/05/26 07:05:31;;;;;;;3.17;1.50;;;;;;;13.76;55.20;99458.75;5051860;28;20489;-78
2021/05/26 07:08:00;;;;;;;2.33;1.42;;;;;;;14.69;53.26;99465.09;5052976;28;20052;-79
2021/05/26 07:10:28;;;;;;;5.90;1.50;;;;;;;14.19;53.38;99468.19;5053091;28;20053;-77
2021/05/26 07:12:55;;;;;;;6.35;2.22;;;;;;;14.35;53.79;99478.25;5042061;28;20040;-78
2021/05/26 07:15:22;;;;;;;7.80;1.40;;;;;;;13.70;54.64;99474.63;5058452;28;20037;-77
2021/05/26 07:17:48;;;;;;;4.53;1.80;;;;;;;13.74;55.33;99468.41;5055149;28;20052;-77
2021/05/26 07:20:16;;;;;;;6.57;1.70;;;;;;;13.31;56.52;99467.66;5053654;28;20056;-78
2021/05/26 07:22:44;;;;;;;5.88;1.73;;;;;;;13.37;56.89;99467.53;5051932;28;20461;-77
2021/05/26 07:25:14;;;;;;;4.85;1.60;;;;;;;13.32;57.33;99467.63;5057184;28;20061;-75
2021/05/26 07:27:53;;;;;;;7.30;2.38;;;;;;;13.57;56.57;99475.81;5060919;28;20130;-76
2021/05/26 07:30:37;;;;;;;2.38;1.70;;;;;;;13.22;56.81;99467.88;5050327;27;20369;-81
2021/05/26 07:38:17;;;;;;;2.95;1.65;;;;;;;13.23;58.47;99469.59;4902082;28;20501;-81
2021/05/26 07:59:44;;;;;;;4.63;1.95;;;;;;;13.64;58.96;99482.66;6096479;22;4118173;-78
2021/05/26 08:02:43;;;;;;;;;;;;;;;;;;;;;
2021/05/26 08:05:30;;;;;;;4.78;2.00;;;;;;;13.00;63.99;99481.38;6124221;23;20021;-79
2021/05/26 08:07:58;;;;;;;4.97;2.10;;;;;;;12.44;65.02;99471.16;6137526;23;20376;-78
2021/05/26 08:10:25;;;;;;;5.03;1.85;;;;;;;12.53;65.40;99477.09;6165113;23;20448;-79
2021/05/26 08:12:52;;;;;;;4.63;2.03;;;;;;;12.71;64.89;99472.41;6191380;23;20028;-83
2021/05/26 08:15:20;;;;;;;6.55;2.08;;;;;;;12.58;65.64;99474.38;6141035;23;20020;-80
2021/05/26 08:18:48;;;;;;;7.07;2.10;;;;;;;12.71;65.78;99477.66;6100391;23;20421;-87
2021/05/26 08:22:08;;;;;;;3.78;1.98;;;;;;;13.34;64.79;99478.94;5961412;23;20479;-79
2021/05/26 08:24:45;;;;;;;3.30;1.98;;;;;;;12.94;65.67;99476.28;6031841;23;20021;-82
2021/05/26 08:27:14;;;;;;;5.05;1.70;;;;;;;13.28;64.53;99480.84;6121657;23;20096;-77
2021/05/26 08:29:42;;;;;;;5.93;1.77;;;;;;;13.47;65.00;99479.56;6104835;23;20074;-82
2021/05/26 08:32:11;;;;;;;6.10;2.03;;;;;;;13.62;62.56;99473.94;6082546;23;20512;-78
2021/05/26 08:34:43;;;;;;;2.50;1.90;;;;;;;13.16;64.88;99470.63;6091083;23;20029;-79
2021/05/26 08:37:10;;;;;;;3.78;2.03;;;;;;;12.94;65.40;99470.19;6098084;23;20522;-77
2021/05/26 08:40:03;;;;;;;3.42;1.95;;;;;;;13.21;65.30;99476.63;6124203;23;20017;-79
2021/05/26 08:43:43;;;;;;;;;;;;;;;;;;;;;
2021/05/26 08:47:15;;;;;;;4.93;1.88;;;;;;;13.87;64.94;99476.84;5959169;23;20080;-81
2021/05/26 08:49:57;;;;;;;4.07;1.87;;;;;;;13.35;65.89;99477.19;6002040;23;20042;-78
2021/05/26 08:52:32;;;;;;;3.10;1.92;;;;;;;13.65;64.48;99475.63;6096402;23;20277;-80
2021/05/26 08:55:09;;;;;;;4.22;2.08;;;;;;;13.33;64.75;99471.97;6107811;23;20025;-81
2021/05/26 09:02:26;;;;;;;2.85;1.52;;;;;;;13.37;66.00;99475.41;6029534;23;20355;-82
2021/05/26 09:10:06;;;;;;;3.40;1.33;;;;;;;13.17;64.98;99474.97;5838294;24;20073;-83
2021/05/26 09:12:41;;;;;;;3.55;1.85;;;;;;;13.26;65.19;99472.16;5880177;24;20406;-82
2021/05/26 09:15:22;;;;;;;5.97;1.52;;;;;;;13.63;64.65;99478.28;5882255;24;20023;-81
2021/05/26 09:18:08;;;;;;;3.40;1.52;;;;;;;13.78;64.44;99479.69;5888630;24;20079;-84
2021/05/26 09:20:49;;;;;;;4.82;1.75;;;;;;;13.48;65.19;99481.25;5866315;24;20028;-82
2021/05/26 09:23:30;;;;;;;2.17;1.52;;;;;;;14.03;64.47;99485.22;5869922;24;20030;-84
2021/05/26 09:26:11;;;;;;;1.77;1.48;;;;;;;14.06;62.24;99477.25;5875585;24;20114;-78
2021/05/26 09:29:29;;;;;;;2.17;1.50;;;;;;;14.08;63.20;99481.59;5901498;24;20399;-87
2021/05/26 09:36:23;;;;;;;1.98;1.55;;;;;;;14.37;61.46;99465.97;5753832;24;20024;-81
2021/05/26 09:39:44;;;;;;;3.55;1.58;;;;;;;14.34;61.90;99488.78;5954261;23;20075;-83
2021/05/26 09:42:36;;;;;;;2.00;1.45;;;;;;;14.59;62.81;99481.16;5974031;23;20026;-87
2021/05/26 09:45:20;;;;;;;4.05;1.20;;;;;;;14.88;59.63;99494.38;5970058;23;20460;-78
2021/05/26 09:47:51;;;;;;;1.92;1.40;;;;;;;15.17;59.26;99497.03;6033146;23;20035;-84
2021/05/26 09:50:33;;;;;;;3.67;1.63;;;;;;;14.83;60.23;99499.75;6038119;23;20038;-81
2021/05/26 09:53:10;;;;;;;7.05;1.58;;;;;;;15.34;58.28;99493.06;6016608;23;20098;-81
2021/05/26 09:55:48;;;;;;;4.57;2.13;;;;;;;15.20;58.13;99494.31;6031013;23;20505;-86
2021/05/26 09:58:17;;;;;;;2.53;1.02;;;;;;;15.14;59.43;99496.28;6072225;23;20022;-80
2021/05/26 10:00:50;;;;;;;3.78;1.20;;;;;;;15.51;58.19;99503.97;6015552;23;20019;-81
2021/05/26 10:03:28;;;;;;;2.63;1.10;;;;;;;15.33;58.33;99504.47;6011185;23;20029;-81
2021/05/26 10:06:17;;;;;;;2.60;1.40;;;;;;;15.25;57.95;99504.72;6097566;23;20022;-85
2021/05/26 10:08:57;;;;;;;5.43;1.63;;;;;;;15.95;58.26;99510.47;6065840;23;20029;-81
2021/05/26 10:12:03;;;;;;;2.60;1.33;;;;;;;15.21;59.90;99508.31;5159022;27;20391;-83
2021/05/26 10:14:52;;;;;;;2.33;1.75;;;;;;;14.86;61.22;99514.59;5092694;27;20174;-84
2021/05/26 10:17:23;;;;;;;1.70;1.27;;;;;;;14.76;61.00;99510.50;5110904;27;20046;-82
2021/05/26 10:21:02;;;;;;;1.70;1.20;;;;;;;15.59;58.88;99508.06;5055159;27;20488;-84
2021/05/26 10:23:38;;;;;;;2.75;1.48;;;;;;;15.55;59.36;99516.97;5025790;28;20089;-83
2021/05/26 10:31:06;;;;;;;2.25;1.60;;;;;;;15.46;57.90;99526.91;5034151;27;20466;-80
2021/05/26 10:35:07;;;;;;;4.00;1.52;;;;;;;15.88;57.56;99530.00;5062757;27;20371;-78
2021/05/26 10:38:01;;;;;;;4.85;2.20;;;;;;;16.32;57.19;99532.09;5054878;28;20135;-81
2021/05/26 10:41:04;;;;;;;5.25;2.88;;;;;;;15.64;57.33;99540.41;5011772;28;20458;-81
2021/05/26 10:43:58;;;;;;;5.05;2.80;;;;;;;14.90;60.87;99549.56;5057304;28;20517;-82
2021/05/26 10:47:37;;;;;;;8.45;3.50;;;;;;;15.77;59.30;99540.03;5027966;28;20044;-85
2021/05/26 10:50:15;;;;;;;7.03;3.08;;;;;;;15.29;60.98;99543.19;4941600;28;20057;-81
2021/05/26 10:52:54;;;;;;;4.45;2.67;;;;;;;15.04;61.74;99553.56;4950505;28;20144;-81
2021/05/26 10:55:33;;;;;;;5.05;2.80;;;;;;;14.78;63.74;99558.63;4964698;28;20118;-80
2021/05/26 10:58:43;;;;;;;10.02;3.20;;;;;;;14.86;62.79;99538.28;5025191;27;20366;-79
2021/05/26 11:01:11;;;;;;;8.77;3.47;;;;;;;15.16;61.58;99549.69;5005680;28;20113;-78
2021/05/26 11:03:44;;;;;;;5.10;2.60;;;;;;;14.88;64.27;99554.00;4999029;28;20061;-78
2021/05/26 11:06:38;;;;;;;4.13;2.85;;;;;;;15.22;62.22;99555.66;4986660;28;20366;-78
2021/05/26 11:09:09;;;;;;;5.95;2.45;;;;;;;15.32;63.35;99558.91;4941230;28;20078;-77
2021/05/26 11:11:39;;;;;;;3.85;2.80;;;;;;;15.85;62.03;99567.00;4960491;28;20066;-79
2021/05/26 11:14:17;;;;;;;3.47;2.30;;;;;;;15.51;61.72;99560.13;4956685;28;20079;-78
2021/05/26 11:16:44;;;;;;;4.63;3.08;;;;;;;15.62;62.88;99568.56;4965838;28;20046;-79
2021/05/26 11:19:53;;;;;;;;;;;;;;;;;;;;;
2021/05/26 11:23:36;;;;;;;9.93;3.33;;;;;;;15.48;62.12;99572.47;5026695;27;20440;-78
2021/05/26 11:27:58;;;;;;;5.68;3.35;;;;;;;14.87;63.36;99582.06;4971527;27;1383066;-79
2021/05/26 11:30:27;;;;;;;8.95;3.80;;;;;;;15.17;62.92;99578.59;5018103;28;20050;-80
2021/05/26 11:35:13;;;;;;;12.20;4.72;;;;;;;14.84;64.38;99574.25;5060526;27;20404;-79
2021/05/26 11:37:41;;;;;;;5.68;3.15;;;;;;;15.32;63.70;99593.09;5049695;28;20134;-82
2021/05/26 11:40:38;;;;;;;9.63;3.72;;;;;;;15.05;64.11;99586.84;5029390;28;20049;-81
2021/05/26 11:44:02;;;;;;;8.18;3.17;;;;;;;15.26;63.53;99596.78;4967514;28;20557;-82
2021/05/26 11:46:36;;;;;;;8.13;4.32;;;;;;;15.26;63.26;99593.28;4960782;28;20397;-79
2021/05/26 11:49:12;;;;;;;9.77;3.85;;;;;;;15.07;63.75;99592.06;4955307;28;20066;-79
2021/05/26 11:53:56;;;;;;;9.65;3.53;;;;;;;15.36;62.64;99597.38;5074496;27;20414;-78
2021/05/26 11:56:23;;;;;;;13.10;5.43;;;;;;;14.97;63.62;99591.44;5012199;28;20072;-79
2021/05/26 11:58:54;;;;;;;6.50;3.25;;;;;;;15.23;62.13;99590.75;5017372;28;20104;-79
2021/05/26 12:01:32;;;;;;;11.82;4.32;;;;;;;15.52;61.57;99601.34;5026962;28;20476;-79
2021/05/26 12:04:01;;;;;;;9.13;4.75;;;;;;;15.47;61.12;99605.84;5033655;28;20252;-78
2021/05/26 12:06:34;;;;;;;9.05;4.13;;;;;;;15.32;62.29;99595.75;4997864;28;20047;-79
2021/05/26 12:09:06;;;;;;;7.47;3.38;;;;;;;15.58;61.29;99595.03;5020999;28;20052;-79
2021/05/26 12:11:37;;;;;;;7.55;2.58;;;;;;;14.76;62.70;99598.16;5016610;28;20049;-79
2021/05/26 12:14:04;;;;;;;5.57;2.78;;;;;;;15.78;61.41;99597.09;5031346;28;20068;-79
2021/05/26 12:16:32;;;;;;;4.55;2.80;;;;;;;16.02;60.81;99596.31;5027134;28;20049;-78
2021/05/26 12:18:59;;;;;;;5.38;2.53;;;;;;;16.35;59.90;99595.28;5025757;28;20047;-77
2021/05/26 12:21:28;;;;;;;5.82;3.10;;;;;;;16.89;58.14;99594.34;5027678;28;20049;-76
2021/05/26 12:24:13;;;;;;;8.10;3.13;;;;;;;17.99;55.27;99601.75;5051955;28;20060;-81
2021/05/26 12:26:46;;;;;;;3.92;2.30;;;;;;;17.52;54.80;99593.81;5058353;28;20049;-81
2021/05/26 12:29:23;;;;;;;8.43;3.17;;;;;;;17.95;54.63;99611.59;5047421;28;20055;-78
2021/05/26 12:31:51;;;;;;;4.45;2.63;;;;;;;18.01;53.92;99594.63;5047387;28;20045;-78
2021/05/26 12:34:21;;;;;;;8.05;3.22;;;;;;;18.18;54.19;99610.69;5024717;28;20124;-81
2021/05/26 12:36:51;;;;;;;4.22;2.35;;;;;;;18.61;52.91;99608.06;4997136;28;20037;-81
2021/05/26 12:39:18;;;;;;;5.68;2.90;;;;;;;18.76;52.30;99614.50;5029063;28;20065;-76
2021/05/26 12:42:03;;;;;;;4.85;1.90;;;;;;;19.25;50.11;99613.25;5024982;28;20041;-83
2021/05/26 12:44:34;;;;;;;2.63;1.73;;;;;;;20.03;47.63;99610.59;4997310;28;20049;-83
2021/05/26 12:47:02;;;;;;;6.28;2.88;;;;;;;17.96;52.76;99615.09;5034230;28;20059;-84
2021/05/26 12:49:41;;;;;;;4.57;2.83;;;;;;;18.65;51.07;99619.41;5025451;28;20084;-82
2021/05/26 12:52:12;;;;;;;7.88;2.92;;;;;;;19.28;49.93;99628.19;4990231;28;20070;-82
2021/05/26 12:54:46;;;;;;;2.15;1.88;;;;;;;19.93;48.30;99622.56;4968685;28;20054;-80
2021/05/26 12:57:23;;;;;;;4.97;2.85;;;;;;;19.21;49.87;99627.56;4982077;28;20054;-83
2021/05/26 13:00:06;;;;;;;;;;;;;;;19.31;50.09;99635.97;4973713;28;20054;-81
2021/05/26 13:02:42;;;;;;;8.30;3.65;;;;;;;19.72;48.41;99628.84;5001927;28;20025;-84
2021/05/26 13:05:16;;;;;;;4.07;2.58;;;;;;;19.76;48.65;99633.09;4960732;28;20046;-82